createdAt,value
2018-03-20T00:00:46.430Z,22.23
2018-03-20T00:03:14.729Z,12.23
2018-03-20T00:05:42.309Z,13.02
2018-03-20T00:08:09.875Z,16.80
2018-03-20T00:10:37.419Z,12.50
2018-03-20T00:13:04.941Z,11.82
2018-03-20T00:15:32.490Z,14.20
2018-03-20T00:18:00.118Z,15.23
2018-03-20T00:20:27.663Z,11.20
2018-03-20T00:22:55.242Z,14.98
2018-03-20T00:25:22.787Z,13.60
2018-03-20T00:27:50.311Z,11.70
2018-03-20T00:30:17.838Z,11.30
2018-03-20T00:32:45.377Z,14.20
2018-03-20T00:35:12.900Z,13.75
2018-03-20T00:37:41.215Z,15.48
2018-03-20T00:40:08.739Z,10.73
2018-03-20T00:42:36.278Z,10.73
2018-03-20T00:45:03.810Z,15.98
2018-03-20T00:47:31.358Z,11.38
2018-03-20T00:49:58.879Z,12.20
2018-03-20T00:52:26.426Z,13.65
2018-03-20T00:54:53.945Z,14.07
2018-03-20T00:57:21.457Z,9.95
2018-03-20T00:59:48.994Z,13.50
2018-03-20T01:02:16.510Z,9.07
2018-03-20T01:04:44.070Z,12.40
2018-03-20T01:07:11.589Z,12.35
2018-03-20T01:09:39.136Z,17.35
2018-03-20T01:12:06.657Z,12.35
2018-03-20T01:14:34.206Z,10.02
2018-03-20T01:17:01.797Z,15.98
2018-03-20T01:19:29.343Z,11.35
2018-03-20T01:21:56.870Z,12.27
2018-03-20T01:24:25.190Z,12.98
2018-03-20T01:26:52.710Z,19.33
2018-03-20T01:29:20.253Z,15.13
2018-03-20T01:31:47.769Z,8.23
2018-03-20T01:34:15.337Z,9.98
2018-03-20T01:36:42.860Z,12.20
2018-03-20T01:39:11.149Z,11.55
2018-03-20T01:41:39.460Z,11.18
2018-03-20T01:44:06.978Z,15.40
2018-03-20T01:46:35.282Z,13.93
2018-03-20T01:49:02.803Z,12.80
2018-03-20T01:51:30.357Z,10.38
2018-03-20T01:53:57.992Z,12.90
2018-03-20T01:56:25.641Z,14.95
2018-03-20T01:58:53.155Z,13.95
2018-03-20T02:01:20.693Z,14.13
2018-03-20T02:03:48.217Z,13.23
2018-03-20T02:06:15.759Z,9.98
2018-03-20T02:08:44.066Z,17.12
2018-03-20T02:11:11.600Z,14.43
2018-03-20T02:13:39.123Z,10.40
2018-03-20T02:16:06.641Z,11.88
2018-03-20T02:18:34.177Z,16.77
2018-03-20T02:21:02.490Z,10.25
2018-03-20T02:23:30.034Z,12.30
2018-03-20T02:25:57.566Z,11.75
2018-03-20T02:28:25.881Z,13.27
2018-03-20T02:30:53.394Z,8.27
2018-03-20T02:33:20.937Z,10.02
2018-03-20T02:35:48.455Z,9.85
2018-03-20T02:38:16.004Z,12.20
2018-03-20T02:40:43.531Z,13.30
2018-03-20T02:43:11.155Z,6.97
2018-03-20T02:45:38.669Z,8.05
2018-03-20T02:48:09.516Z,9.60
2018-03-20T02:50:38.616Z,11.10
2018-03-20T02:53:10.627Z,12.20
2018-03-20T02:55:43.417Z,13.77
2018-03-20T02:58:12.755Z,9.18
2018-03-20T03:00:41.923Z,9.40
2018-03-20T03:03:15.164Z,12.80
2018-03-20T03:05:52.365Z,18.30
2018-03-20T03:08:19.931Z,8.38
2018-03-20T03:10:48.193Z,8.23
2018-03-20T03:16:03.508Z,9.18
2018-03-20T03:18:34.174Z,13.60
2018-03-20T03:21:05.055Z,12.93
2018-03-20T03:23:43.290Z,9.93
2018-03-20T03:26:12.398Z,9.93
2018-03-20T03:28:48.094Z,8.88
2018-03-20T03:31:16.224Z,10.52
2018-03-20T03:33:47.125Z,10.90
2018-03-20T03:36:17.122Z,11.82
2018-03-20T03:38:46.363Z,12.43
2018-03-20T03:41:15.973Z,13.73
2018-03-20T03:43:46.897Z,12.70
2018-03-20T03:46:24.378Z,10.43
2018-03-20T03:48:53.826Z,9.63
2018-03-20T03:51:24.778Z,11.85
2018-03-20T03:53:53.746Z,10.77
2018-03-20T03:56:25.301Z,18.23
2018-03-20T03:58:57.189Z,15.00
2018-03-20T04:04:14.228Z,16.42
2018-03-20T04:06:45.936Z,9.77
2018-03-20T04:09:15.484Z,9.80
2018-03-20T04:11:44.276Z,9.73
2018-03-20T04:14:13.165Z,8.43
2018-03-20T04:16:45.654Z,10.52
2018-03-20T04:21:48.062Z,16.48
2018-03-20T04:24:17.012Z,9.93
2018-03-20T04:26:44.562Z,8.60
2018-03-20T04:29:16.711Z,7.82
2018-03-20T04:31:49.852Z,9.40
2018-03-20T04:34:19.002Z,10.10
2018-03-20T04:36:47.432Z,7.43
2018-03-20T04:39:15.270Z,8.30
2018-03-20T04:41:43.554Z,9.85
2018-03-20T04:44:11.859Z,14.77
2018-03-20T04:46:39.386Z,13.65
2018-03-20T04:49:07.702Z,6.65
2018-03-20T04:51:35.213Z,10.68
2018-03-20T04:54:02.744Z,11.68
2018-03-20T04:56:30.260Z,9.13
2018-03-20T04:58:58.568Z,11.18
2018-03-20T05:01:26.092Z,10.90
2018-03-20T05:03:54.393Z,13.23
2018-03-20T05:06:21.928Z,9.80
2018-03-20T05:08:50.235Z,9.68
2018-03-20T05:11:17.756Z,8.52
2018-03-20T05:13:46.075Z,12.77
2018-03-20T05:16:13.599Z,14.82
2018-03-20T05:21:59.466Z,10.98
2018-03-20T05:24:27.010Z,12.37
2018-03-20T05:26:54.522Z,7.47
2018-03-20T05:29:22.062Z,12.25
2018-03-20T05:31:49.577Z,8.48
2018-03-20T05:34:17.108Z,8.93
2018-03-20T05:36:44.620Z,10.10
2018-03-20T05:39:12.158Z,10.07
2018-03-20T05:41:39.682Z,13.80
2018-03-20T05:44:07.202Z,15.50
2018-03-20T05:49:38.365Z,10.10
2018-03-20T05:52:06.491Z,10.50
2018-03-20T05:54:34.009Z,8.90
2018-03-20T05:57:01.551Z,15.13
2018-03-20T05:59:29.130Z,8.90
2018-03-20T06:01:56.689Z,11.27
2018-03-20T06:04:24.200Z,6.40
2018-03-20T06:06:51.734Z,9.50
2018-03-20T06:09:19.241Z,6.90
2018-03-20T06:11:47.542Z,9.07
2018-03-20T06:14:15.117Z,7.30
2018-03-20T06:16:42.656Z,7.43
2018-03-20T06:19:10.236Z,7.55
2018-03-20T06:21:37.792Z,8.45
2018-03-20T06:24:05.306Z,6.45
2018-03-20T06:26:32.923Z,7.25
2018-03-20T06:29:00.440Z,10.15
2018-03-20T06:31:28.045Z,8.93
2018-03-20T06:33:55.574Z,8.65
2018-03-20T06:36:23.854Z,9.65
2018-03-20T06:38:52.146Z,8.38
2018-03-20T06:41:19.721Z,13.32
2018-03-20T06:43:47.279Z,9.82
2018-03-20T06:46:14.803Z,10.43
2018-03-20T06:48:43.119Z,14.65
2018-03-20T06:51:10.635Z,12.73
2018-03-20T06:53:38.173Z,8.73
2018-03-20T06:56:05.685Z,10.05
2018-03-20T06:58:33.229Z,10.77
2018-03-20T07:01:01.529Z,7.10
2018-03-20T07:03:29.042Z,8.75
2018-03-20T07:05:56.592Z,8.05
2018-03-20T07:08:24.107Z,13.25
2018-03-20T07:10:51.656Z,15.88
2018-03-20T07:13:19.937Z,15.57
2018-03-20T07:15:48.248Z,13.18
2018-03-20T07:18:15.766Z,12.63
2018-03-20T07:20:44.069Z,24.35
2018-03-20T07:23:11.586Z,11.50
2018-03-20T07:25:39.121Z,14.85
2018-03-20T07:28:06.638Z,14.25
2018-03-20T07:30:34.941Z,10.88
2018-03-20T07:33:02.459Z,16.20
2018-03-20T07:35:29.997Z,16.12
2018-03-20T07:37:57.526Z,16.45
2018-03-20T07:40:25.042Z,14.80
2018-03-20T07:42:53.354Z,13.27
2018-03-20T07:45:20.879Z,15.88
2018-03-20T07:47:49.195Z,15.63
2018-03-20T07:50:16.721Z,23.42
2018-03-20T07:52:45.025Z,25.85
2018-03-20T07:55:12.607Z,18.92
2018-03-20T07:57:40.162Z,20.45
2018-03-20T08:00:07.722Z,13.20
2018-03-20T08:02:35.286Z,17.05
2018-03-20T08:05:02.805Z,13.77
2018-03-20T08:07:31.114Z,20.17
2018-03-20T08:09:58.637Z,15.95
2018-03-20T08:12:26.174Z,10.00
2018-03-20T08:14:53.702Z,9.23
2018-03-20T08:17:21.242Z,11.77
2018-03-20T08:19:49.525Z,8.57
2018-03-20T08:22:17.041Z,6.35
2018-03-20T08:24:44.580Z,11.23
2018-03-20T08:27:12.094Z,9.93
2018-03-20T08:29:40.401Z,13.68
2018-03-20T08:32:07.973Z,10.65
2018-03-20T08:34:35.520Z,11.05
2018-03-20T08:37:03.042Z,13.57
2018-03-20T08:39:30.654Z,17.73
2018-03-20T08:41:58.214Z,9.35
2018-03-20T08:44:25.775Z,9.82
2018-03-20T08:46:53.285Z,19.33
2018-03-20T08:49:20.824Z,18.00
2018-03-20T08:51:48.351Z,14.27
2018-03-20T08:54:15.873Z,12.37
2018-03-20T08:56:44.173Z,13.43
2018-03-20T08:59:11.698Z,10.05
2018-03-20T09:01:39.323Z,10.10
2018-03-20T09:04:06.957Z,11.63
2018-03-20T09:06:35.357Z,10.68
2018-03-20T09:09:03.036Z,11.50
2018-03-20T09:11:30.603Z,7.07
2018-03-20T09:13:59.316Z,10.93
2018-03-20T09:16:26.943Z,10.27
2018-03-20T09:18:54.500Z,10.38
2018-03-20T09:21:22.037Z,8.02
2018-03-20T09:23:50.321Z,11.25
2018-03-20T09:26:17.903Z,9.60
2018-03-20T09:28:45.418Z,16.85
2018-03-20T09:31:13.847Z,10.80
2018-03-20T09:33:41.406Z,20.27
2018-03-20T09:36:08.926Z,11.60
2018-03-20T09:38:37.249Z,12.70
2018-03-20T09:41:04.818Z,14.23
2018-03-20T09:43:32.354Z,12.60
2018-03-20T09:46:00.634Z,10.70
2018-03-20T09:48:28.216Z,13.05
2018-03-20T09:50:55.745Z,11.90
2018-03-20T09:53:24.051Z,15.55
2018-03-20T09:55:51.622Z,10.13
2018-03-20T09:58:19.169Z,13.38
2018-03-20T10:00:46.686Z,8.70
2018-03-20T10:03:14.246Z,12.25
2018-03-20T10:05:41.753Z,9.15
2018-03-20T10:08:09.381Z,11.52
2018-03-20T10:10:37.699Z,13.57
2018-03-20T10:13:05.262Z,9.57
2018-03-20T10:15:32.796Z,11.63
2018-03-20T10:18:01.078Z,9.57
2018-03-20T10:20:28.605Z,11.88
2018-03-20T10:22:56.117Z,7.32
2018-03-20T10:25:23.649Z,12.05
2018-03-20T10:27:51.938Z,10.20
2018-03-20T10:30:19.523Z,11.55
2018-03-20T10:32:47.081Z,11.32
2018-03-20T10:35:14.614Z,7.57
2018-03-20T10:37:42.902Z,17.15
2018-03-20T10:40:10.487Z,10.13
2018-03-20T10:42:38.041Z,9.35
2018-03-20T10:45:06.318Z,8.73
2018-03-20T10:47:33.826Z,13.38
2018-03-20T10:50:01.441Z,12.70
2018-03-20T10:52:28.969Z,16.90
2018-03-20T10:54:56.537Z,19.40
2018-03-20T10:57:24.087Z,16.65
2018-03-20T10:59:52.402Z,12.32
2018-03-20T11:02:19.946Z,12.82
2018-03-20T11:04:47.476Z,15.52
2018-03-20T11:07:15.093Z,11.18
2018-03-20T11:09:42.613Z,12.45
2018-03-20T11:12:10.923Z,15.30
2018-03-20T11:14:38.453Z,20.23
2018-03-20T11:17:06.760Z,12.55
2018-03-20T11:19:34.269Z,8.85
2018-03-20T11:22:01.807Z,13.02
2018-03-20T11:24:29.348Z,9.95
2018-03-20T11:26:57.017Z,14.25
2018-03-20T11:29:24.533Z,14.40
2018-03-20T11:31:52.857Z,12.35
2018-03-20T11:34:20.411Z,12.75
2018-03-20T11:36:47.934Z,17.05
2018-03-20T11:39:16.245Z,13.88
2018-03-20T11:41:43.762Z,13.05
2018-03-20T11:44:11.293Z,16.20
2018-03-20T11:46:38.818Z,14.63
2018-03-20T11:49:06.354Z,10.10
2018-03-20T11:51:34.639Z,12.13
2018-03-20T11:54:02.940Z,17.60
2018-03-20T11:56:30.463Z,10.88
2018-03-20T11:58:58.001Z,10.32
2018-03-20T12:01:25.518Z,13.05
2018-03-20T12:03:53.059Z,17.70
2018-03-20T12:06:21.346Z,13.93
2018-03-20T12:08:50.490Z,9.45
2018-03-20T12:11:18.005Z,12.13
2018-03-20T12:13:46.296Z,12.02
2018-03-20T12:16:13.842Z,12.52
2018-03-20T12:18:42.139Z,12.48
2018-03-20T12:21:09.720Z,11.82
2018-03-20T12:23:37.233Z,15.32
2018-03-20T12:26:05.538Z,22.90
2018-03-20T12:28:33.318Z,13.15
2018-03-20T12:31:00.869Z,17.87
2018-03-20T12:33:28.393Z,12.90
2018-03-20T12:35:55.929Z,18.95
2018-03-20T12:38:23.456Z,30.75
2018-03-20T12:40:51.017Z,25.45
2018-03-20T12:43:18.537Z,19.62
2018-03-20T12:45:46.151Z,15.23
2018-03-20T13:08:10.479Z,18.98
2018-03-20T13:10:37.993Z,18.25
2018-03-20T13:13:05.525Z,14.30
2018-03-20T13:15:33.046Z,21.05
2018-03-20T13:18:00.618Z,23.15
2018-03-20T13:20:28.134Z,16.65
2018-03-20T13:22:56.447Z,21.20
2018-03-20T13:25:23.965Z,16.60
2018-03-20T13:27:51.511Z,17.08
2018-03-20T13:30:19.030Z,13.77
2018-03-20T13:32:46.563Z,15.10
2018-03-20T13:35:14.078Z,11.40
2018-03-20T13:37:41.620Z,8.10
2018-03-20T13:40:09.138Z,7.18
2018-03-20T13:42:36.670Z,7.18
2018-03-20T13:45:04.327Z,9.93
2018-03-20T13:47:31.885Z,8.35
2018-03-20T13:49:59.392Z,7.82
2018-03-20T13:52:28.443Z,7.18
2018-03-20T13:54:55.966Z,10.05
2018-03-20T13:57:24.246Z,9.52
2018-03-20T13:59:52.554Z,11.40
2018-03-20T14:02:20.075Z,8.25
2018-03-20T14:04:48.380Z,7.03
2018-03-20T14:07:15.894Z,9.30
2018-03-20T14:09:43.438Z,15.82
2018-03-20T14:12:10.954Z,10.65
2018-03-20T14:14:39.320Z,12.43
2018-03-20T14:17:07.454Z,10.43
2018-03-20T14:19:34.990Z,11.38
2018-03-20T14:22:02.510Z,8.18
2018-03-20T14:24:30.810Z,7.35
2018-03-20T14:26:58.402Z,8.45
2018-03-20T14:29:25.937Z,6.00
2018-03-20T14:31:53.459Z,6.03
2018-03-20T14:34:21.081Z,10.27
2018-03-20T14:36:48.642Z,6.68
2018-03-20T14:39:16.158Z,8.10
2018-03-20T14:41:44.488Z,7.75
2018-03-20T14:44:12.003Z,5.53
2018-03-20T14:46:40.303Z,6.03
2018-03-20T14:49:07.827Z,5.45
2018-03-20T14:51:35.368Z,8.00
2018-03-20T14:54:02.895Z,7.95
2018-03-20T14:56:30.439Z,5.82
2018-03-20T14:58:57.971Z,6.60
2018-03-20T15:01:25.514Z,5.20
2018-03-20T15:03:53.030Z,5.90
2018-03-20T15:06:20.585Z,5.65
2018-03-20T15:08:48.870Z,10.65
2018-03-20T15:11:17.286Z,6.90
2018-03-20T15:13:44.799Z,7.00
2018-03-20T15:16:13.102Z,10.82
2018-03-20T15:18:40.622Z,8.15
2018-03-20T15:21:08.161Z,7.55
2018-03-20T15:23:35.729Z,10.35
2018-03-20T15:26:03.244Z,6.22
2018-03-20T15:28:30.769Z,6.50
2018-03-20T15:30:58.387Z,6.85
2018-03-20T15:33:25.942Z,4.62
2018-03-20T15:35:53.467Z,6.55
2018-03-20T15:38:21.782Z,6.28
2018-03-20T15:40:49.346Z,5.32
2018-03-20T15:43:16.885Z,4.30
2018-03-20T15:45:44.406Z,4.60
2018-03-20T15:48:11.953Z,6.57
2018-03-20T15:50:39.491Z,3.83
2018-03-20T15:53:07.027Z,5.28
2018-03-20T15:55:34.548Z,5.05
2018-03-20T15:58:02.086Z,4.72
2018-03-20T16:00:29.614Z,5.53
2018-03-20T16:02:57.155Z,4.35
2018-03-20T16:05:25.439Z,3.70
2018-03-20T16:07:53.748Z,4.82
2018-03-20T16:10:21.317Z,4.80
2018-03-20T16:12:48.858Z,3.40
2018-03-20T16:15:16.374Z,3.67
2018-03-20T16:17:43.931Z,5.25
2018-03-20T16:20:11.455Z,4.40
2018-03-20T16:22:38.972Z,8.95
2018-03-20T16:25:07.295Z,5.15
2018-03-20T16:27:34.810Z,4.87
2018-03-20T16:30:03.109Z,4.12
2018-03-20T16:32:30.637Z,5.32
2018-03-20T16:34:58.170Z,4.07
2018-03-20T16:37:25.685Z,5.15
2018-03-20T16:39:53.318Z,5.45
2018-03-20T16:42:20.840Z,5.03
2018-03-20T16:44:48.391Z,6.30
2018-03-20T16:47:15.906Z,8.32
2018-03-20T16:49:44.206Z,8.10
2018-03-20T16:52:11.722Z,5.70
2018-03-20T16:54:39.258Z,4.00
2018-03-20T16:57:06.774Z,5.57
2018-03-20T16:59:35.072Z,5.00
2018-03-20T17:02:02.661Z,4.20
2018-03-20T17:04:30.194Z,5.35
2018-03-20T17:06:57.782Z,7.80
2018-03-20T17:09:25.325Z,6.80
2018-03-20T17:11:52.837Z,8.18
2018-03-20T17:14:20.356Z,5.22
2018-03-20T17:16:47.903Z,6.55
2018-03-20T17:19:15.482Z,7.80
2018-03-20T17:21:43.149Z,4.43
2018-03-20T17:24:10.693Z,6.85
2018-03-20T17:26:38.230Z,5.10
2018-03-20T17:29:06.510Z,7.25
2018-03-20T17:31:34.814Z,5.50
2018-03-20T17:34:02.394Z,5.55
2018-03-20T17:36:29.930Z,7.72
2018-03-20T17:38:57.449Z,7.60
2018-03-20T17:41:25.067Z,5.32
2018-03-20T17:43:52.590Z,7.00
2018-03-20T17:46:20.937Z,6.60
2018-03-20T17:48:48.426Z,6.47
2018-03-20T17:51:16.722Z,4.20
2018-03-20T17:53:44.240Z,6.12
2018-03-20T17:56:11.774Z,6.03
2018-03-20T17:58:39.301Z,9.80
2018-03-20T18:01:06.840Z,5.50
2018-03-20T18:03:35.122Z,5.93
2018-03-20T18:06:03.427Z,6.30
2018-03-20T18:08:30.950Z,9.70
2018-03-20T18:10:58.467Z,5.45
2018-03-20T18:13:26.021Z,6.62
2018-03-20T18:15:53.535Z,5.95
2018-03-20T18:18:21.066Z,3.90
2018-03-20T18:20:48.582Z,5.22
2018-03-20T18:23:16.114Z,5.50
2018-03-20T18:25:43.730Z,6.43
2018-03-20T18:28:11.265Z,5.40
2018-03-20T18:30:38.860Z,6.03
2018-03-20T18:33:06.402Z,5.72
2018-03-20T18:35:33.930Z,6.25
2018-03-20T18:38:02.234Z,6.82
2018-03-20T18:40:29.750Z,4.85
2018-03-20T18:42:59.092Z,6.60
2018-03-20T18:45:26.661Z,6.40
2018-03-20T18:47:54.193Z,4.78
2018-03-20T18:50:22.483Z,5.70
2018-03-20T18:52:50.897Z,6.40
2018-03-20T18:55:18.473Z,6.97
2018-03-20T18:57:46.015Z,7.65
2018-03-20T19:00:13.534Z,12.37
2018-03-20T19:02:41.853Z,6.78
2018-03-20T19:05:09.367Z,4.37
2018-03-20T19:07:36.905Z,5.68
2018-03-20T19:10:04.421Z,7.40
2018-03-20T19:12:31.933Z,8.38
2018-03-20T19:14:59.569Z,7.65
2018-03-20T19:17:27.084Z,8.57
2018-03-20T19:19:55.391Z,5.25
2018-03-20T19:22:22.962Z,8.32
2018-03-20T19:24:50.501Z,7.45
2018-03-20T19:27:18.023Z,7.65
2018-03-20T19:29:45.559Z,3.85
2018-03-20T19:32:13.074Z,4.93
2018-03-20T19:34:41.482Z,3.87
2018-03-20T19:37:09.002Z,3.58
2018-03-20T19:39:37.305Z,4.60
2018-03-20T19:42:04.883Z,4.35
2018-03-20T19:44:32.429Z,4.70
2018-03-20T19:46:59.953Z,4.20
2018-03-20T19:49:27.489Z,4.40
2018-03-20T19:51:55.011Z,7.12
2018-03-20T19:54:22.550Z,4.85
2018-03-20T19:56:50.837Z,4.60
2018-03-20T19:59:19.150Z,4.65
2018-03-20T20:01:46.711Z,4.15
2018-03-20T20:04:14.238Z,4.50
2018-03-20T20:06:42.524Z,5.10
2018-03-20T20:09:10.067Z,9.50
2018-03-20T20:11:38.358Z,4.78
2018-03-20T20:14:05.897Z,5.70
2018-03-20T20:16:33.414Z,6.70
2018-03-20T20:19:00.955Z,9.43
2018-03-20T20:21:28.522Z,4.75
2018-03-20T20:23:56.039Z,4.45
2018-03-20T20:26:24.348Z,4.18
2018-03-20T20:28:51.865Z,6.78
2018-03-20T20:31:19.401Z,3.00
2018-03-20T20:33:46.918Z,5.93
2018-03-20T20:36:14.456Z,6.90
2018-03-20T20:38:41.978Z,7.95
2018-03-20T20:41:09.627Z,5.57
2018-03-20T20:43:37.149Z,4.90
2018-03-20T20:46:05.455Z,7.18
2018-03-20T20:48:33.033Z,6.10
2018-03-20T20:51:00.572Z,8.20
2018-03-20T20:53:29.284Z,6.95
2018-03-20T20:55:56.838Z,15.30
2018-03-20T20:58:24.365Z,12.07
2018-03-20T21:00:52.680Z,9.40
2018-03-20T21:03:20.198Z,9.35
2018-03-20T21:05:48.498Z,6.37
2018-03-20T21:08:16.018Z,5.00
2018-03-20T21:10:43.566Z,5.53
2018-03-20T21:13:11.087Z,5.40
2018-03-20T21:15:38.641Z,3.12
2018-03-20T21:18:06.162Z,5.20
2018-03-20T21:20:33.677Z,4.57
2018-03-20T21:23:01.245Z,5.35
2018-03-20T21:25:28.798Z,10.68
2018-03-20T21:27:56.379Z,6.28
2018-03-20T21:30:23.876Z,8.52
2018-03-20T21:32:51.410Z,6.00
2018-03-20T21:35:18.953Z,7.72
2018-03-20T21:37:46.509Z,6.70
2018-03-20T21:40:14.026Z,8.63
2018-03-20T21:42:42.330Z,7.75
2018-03-20T21:45:09.855Z,7.82
2018-03-20T21:47:37.387Z,8.80
2018-03-20T21:50:04.902Z,5.55
2018-03-20T21:52:32.443Z,6.72
2018-03-20T21:55:00.727Z,10.23
2018-03-20T21:57:29.042Z,11.25
2018-03-20T21:59:56.562Z,9.73
2018-03-20T22:02:24.870Z,8.40
2018-03-20T22:04:52.396Z,10.32
2018-03-20T22:07:19.935Z,8.40
2018-03-20T22:09:47.460Z,9.18
2018-03-20T22:12:15.030Z,9.32
2018-03-20T22:14:42.546Z,9.55
2018-03-20T22:17:10.082Z,8.32
2018-03-20T22:19:37.598Z,6.55
2018-03-20T22:22:05.171Z,12.05
2018-03-20T22:24:32.730Z,10.60
2018-03-20T22:27:00.246Z,11.32
2018-03-20T22:29:27.778Z,6.32
2018-03-20T22:31:55.299Z,8.77
2018-03-20T22:34:22.878Z,6.20
2018-03-20T22:36:50.399Z,9.90
2018-03-20T22:39:18.718Z,9.45
2018-03-20T22:41:46.282Z,10.55
2018-03-20T22:44:13.842Z,6.53
2018-03-20T22:46:41.361Z,7.68
2018-03-20T22:49:09.668Z,8.00
2018-03-20T22:51:37.186Z,6.20
2018-03-20T22:54:04.727Z,7.28
2018-03-20T22:56:32.242Z,8.25
2018-03-20T22:58:59.783Z,5.57
2018-03-20T23:01:28.065Z,8.65
2018-03-20T23:03:56.378Z,5.75
2018-03-20T23:06:23.898Z,8.30
2018-03-20T23:08:52.213Z,7.00
2018-03-20T23:11:19.730Z,6.03
2018-03-20T23:13:47.266Z,7.60
2018-03-20T23:16:14.789Z,6.70
2018-03-20T23:18:42.329Z,4.72
2018-03-20T23:21:10.620Z,4.62
2018-03-20T23:23:38.206Z,5.07
2018-03-20T23:26:05.713Z,6.47
2018-03-20T23:28:33.456Z,6.20
2018-03-20T23:31:00.970Z,5.62
2018-03-20T23:33:28.507Z,9.10
2018-03-20T23:35:56.026Z,7.45
2018-03-20T23:38:23.557Z,5.00
2018-03-20T23:40:51.142Z,5.60
2018-03-20T23:43:18.662Z,6.20
2018-03-20T23:45:46.964Z,5.90
2018-03-20T23:48:14.497Z,8.18
2018-03-20T23:50:42.801Z,8.88
2018-03-20T23:53:10.317Z,6.15
2018-03-20T23:55:37.857Z,4.60
2018-03-20T23:58:05.383Z,5.40
